METAR-Meldungen aus der Umgebung

   
EDMO - Oberpfaffenhofen, Germany
Entfernung von der Station bis: SSO 18 km
Aktualisierung: 20-01-2022 03:20
Bewölkt  
Bewölkt  
   Wind: WSW 29.6 km/h
Wind: WSW 29.6 km/h
Temperatur: 2°C
Gefühlt: -4°C
Taupunkt: -2°C
Luftfeuchte: 75%
Luftdruck: 1022 hPa
Bewölkt: Overcast
Sichtbarkeit: Mehr als 10 km
Bewölkung: Bewölkt 3200 ft
EDMO 200220Z AUTO 24016KT 9999 // OVC032/// 02/M02 Q1022
ETSL - Lechfeld (ger-Af, Germany
Entfernung von der Station bis: WSW 23 km
Aktualisierung: 20-01-2022 03:20
  
  
   Wind: SW 25.9 km/h
Wind: SW 25.9 km/h
Temperatur: 1°C
Gefühlt: -4°C
Taupunkt: -2°C
Luftfeuchte: 81%
Luftdruck: 1022 hPa
Sichtbarkeit: 5 km
ETSL 200220Z AUTO 22014KT 5000 // ////// 01/M02 Q1022 ///
EDMA - Augsburg/Mulhaus, Germany
Entfernung von der Station bis: NW 30 km
Aktualisierung: 20-01-2022 03:20
Bewölkt  
Bewölkt  
   Wind: WSW 22.2 km/h
Wind: WSW 22.2 km/h
Temperatur: 2°C
Gefühlt: -3°C
Taupunkt: -1°C
Luftfeuchte: 81%
Luftdruck: 1022 hPa
Bewölkt: Overcast
Sichtbarkeit: Mehr als 10 km
Bewölkung: Teilweise bewölkt 3300 ft,
Bewölkt 4100 ft
EDMA 200220Z AUTO 24012KT 9999 SCT033/// OVC041/// 02/M01 Q1022
ETHA - Altenstadt/Schon, Germany
Entfernung von der Station bis: SSW 49 km
Aktualisierung: 20-01-2022 03:20
  
  
   Wind: Westen 37 km/h
Wind: Westen 37 km/h
Temperatur: 0°C
Gefühlt: -7°C
Taupunkt: -3°C
Luftfeuchte: 80%
Luftdruck: 1022 hPa
Sichtbarkeit: Mehr als 10 km
ETHA 200220Z AUTO 27020KT 9999 // ////// 00/M03 Q1022 ///
EDDM - Munich-Flughafen, Germany
Entfernung von der Station bis: ONO 50 km
Aktualisierung: 20-01-2022 03:20
Leichter Schneefall, Regen, Bewölkt  
Leichter Schneefall, Regen, Bewölkt  
   Wind: WSW 29.6 km/h
Wind: WSW 29.6 km/h
Temperatur: 3°C
Gefühlt: -3°C
Taupunkt: -2°C
Luftfeuchte: 70%
Luftdruck: 1022 hPa
Bewölkt: Overcast
Sichtbarkeit: Mehr als 10 km
Bewölkung: Teilweise bewölkt 2200 ft,
Bewölkt 3500 ft
EDDM 200220Z 25016KT 9999 -SNRA SCT022 OVC035 03/M02 Q1022 NOSIG
 

Script entwickelt von  Saratoga-weather.org Angepasst für das Template von  Weerstation Leuven